sensor_id;sensor_type;location;lat;lon;timestamp;pressure;altitude;pressure_sealevel;temperature;humidity
74594;BME280;63097;51.872;4.460;2023-02-15T00:01:08;103093.38;;;1.71;95.07
74594;BME280;63097;51.872;4.460;2023-02-15T00:03:34;103095.69;;;1.66;95.13
74594;BME280;63097;51.872;4.460;2023-02-15T00:06:00;103075.91;;;1.62;94.98
74594;BME280;63097;51.872;4.460;2023-02-15T00:08:25;103078.06;;;1.59;94.99
74594;BME280;63097;51.872;4.460;2023-02-15T00:10:50;103077.34;;;1.57;95.37
74594;BME280;63097;51.872;4.460;2023-02-15T00:13:16;103077.47;;;1.55;95.17
74594;BME280;63097;51.872;4.460;2023-02-15T00:15:41;103072.97;;;1.54;95.19
74594;BME280;63097;51.872;4.460;2023-02-15T00:18:06;103074.75;;;1.55;95.14
74594;BME280;63097;51.872;4.460;2023-02-15T00:20:32;103072.53;;;1.49;94.79
74594;BME280;63097;51.872;4.460;2023-02-15T00:22:58;103068.34;;;1.45;94.88
74594;BME280;63097;51.872;4.460;2023-02-15T00:25:23;103066.88;;;1.41;94.79
74594;BME280;63097;51.872;4.460;2023-02-15T00:27:49;103059.53;;;1.42;94.67
74594;BME280;63097;51.872;4.460;2023-02-15T00:30:14;103066.59;;;1.35;94.79
74594;BME280;63097;51.872;4.460;2023-02-15T00:32:39;103060.81;;;1.38;95.01
74594;BME280;63097;51.872;4.460;2023-02-15T00:35:05;103055.31;;;1.38;94.88
74594;BME280;63097;51.872;4.460;2023-02-15T00:37:30;103057.22;;;1.37;94.56
74594;BME280;63097;51.872;4.460;2023-02-15T00:39:55;103057.47;;;1.34;94.48
74594;BME280;63097;51.872;4.460;2023-02-15T00:42:21;103056.00;;;1.30;94.23
74594;BME280;63097;51.872;4.460;2023-02-15T00:44:46;103050.69;;;1.29;94.44
74594;BME280;63097;51.872;4.460;2023-02-15T00:47:11;103050.81;;;1.27;94.40
74594;BME280;63097;51.872;4.460;2023-02-15T00:49:37;103048.81;;;1.29;94.30
74594;BME280;63097;51.872;4.460;2023-02-15T00:52:02;103052.84;;;1.25;94.43
74594;BME280;63097;51.872;4.460;2023-02-15T00:54:27;103052.97;;;1.24;94.32
74594;BME280;63097;51.872;4.460;2023-02-15T00:56:53;103062.47;;;1.20;94.09
74594;BME280;63097;51.872;4.460;2023-02-15T00:59:18;103053.06;;;1.13;94.07
74594;BME280;63097;51.872;4.460;2023-02-15T01:01:43;103050.47;;;1.11;94.23
74594;BME280;63097;51.872;4.460;2023-02-15T01:04:09;103055.97;;;1.11;94.72
74594;BME280;63097;51.872;4.460;2023-02-15T01:06:34;103049.00;;;1.07;94.59
74594;BME280;63097;51.872;4.460;2023-02-15T01:08:59;103045.53;;;1.05;94.76
74594;BME280;63097;51.872;4.460;2023-02-15T01:11:24;103041.09;;;1.04;94.96
74594;BME280;63097;51.872;4.460;2023-02-15T01:13:55;103027.69;;;1.11;95.42
74594;BME280;63097;51.872;4.460;2023-02-15T01:16:23;103039.16;;;1.35;95.72
74594;BME280;63097;51.872;4.460;2023-02-15T01:18:49;103046.22;;;1.28;95.50
74594;BME280;63097;51.872;4.460;2023-02-15T01:21:20;103040.09;;;1.15;95.44
74594;BME280;63097;51.872;4.460;2023-02-15T01:23:46;103038.19;;;1.06;95.55
74594;BME280;63097;51.872;4.460;2023-02-15T01:26:12;103040.34;;;1.02;95.29
74594;BME280;63097;51.872;4.460;2023-02-15T01:28:38;103037.84;;;0.99;95.46
74594;BME280;63097;51.872;4.460;2023-02-15T01:31:09;103032.38;;;0.99;95.47
74594;BME280;63097;51.872;4.460;2023-02-15T01:33:35;103031.41;;;1.00;95.58
74594;BME280;63097;51.872;4.460;2023-02-15T01:36:01;103036.44;;;0.95;95.20
74594;BME280;63097;51.872;4.460;2023-02-15T01:38:26;103023.84;;;0.92;95.34
74594;BME280;63097;51.872;4.460;2023-02-15T01:40:53;103034.81;;;0.92;94.98
74594;BME280;63097;51.872;4.460;2023-02-15T01:43:18;103022.81;;;0.84;95.06
74594;BME280;63097;51.872;4.460;2023-02-15T01:45:46;103024.53;;;0.85;94.68
74594;BME280;63097;51.872;4.460;2023-02-15T01:48:24;103018.47;;;0.81;94.76
74594;BME280;63097;51.872;4.460;2023-02-15T01:50:55;103021.06;;;0.83;94.74
74594;BME280;63097;51.872;4.460;2023-02-15T01:58:24;103002.91;;;0.82;95.17
74594;BME280;63097;51.872;4.460;2023-02-15T02:00:51;103008.38;;;0.82;95.05
74594;BME280;63097;51.872;4.460;2023-02-15T02:03:18;103003.16;;;0.79;95.51
74594;BME280;63097;51.872;4.460;2023-02-15T02:05:49;103007.50;;;0.81;95.29
74594;BME280;63097;51.872;4.460;2023-02-15T02:08:14;103003.44;;;0.76;94.88
74594;BME280;63097;51.872;4.460;2023-02-15T02:10:39;102999.09;;;0.73;95.20
74594;BME280;63097;51.872;4.460;2023-02-15T02:13:06;102986.13;;;0.66;94.91
74594;BME280;63097;51.872;4.460;2023-02-15T02:21:25;102983.47;;;0.64;94.93
74594;BME280;63097;51.872;4.460;2023-02-15T02:26:48;102980.28;;;0.59;94.88
74594;BME280;63097;51.872;4.460;2023-02-15T02:35:15;102970.47;;;0.57;95.19
74594;BME280;63097;51.872;4.460;2023-02-15T02:38:04;102965.56;;;0.51;95.11
74594;BME280;63097;51.872;4.460;2023-02-15T02:43:44;102955.50;;;0.51;95.05
74594;BME280;63097;51.872;4.460;2023-02-15T02:46:18;102958.63;;;0.47;95.22
74594;BME280;63097;51.872;4.460;2023-02-15T02:48:45;102946.78;;;0.46;94.85
74594;BME280;63097;51.872;4.460;2023-02-15T02:51:11;102944.06;;;0.46;95.01
74594;BME280;63097;51.872;4.460;2023-02-15T02:53:36;102947.28;;;0.51;95.08
74594;BME280;63097;51.872;4.460;2023-02-15T02:56:09;102945.97;;;0.55;95.13
74594;BME280;63097;51.872;4.460;2023-02-15T02:58:40;102934.38;;;0.42;94.87
74594;BME280;63097;51.872;4.460;2023-02-15T03:01:09;102941.47;;;0.45;94.73
74594;BME280;63097;51.872;4.460;2023-02-15T03:03:44;102930.94;;;0.40;94.70
74594;BME280;63097;51.872;4.460;2023-02-15T03:06:17;102939.25;;;0.39;94.85
74594;BME280;63097;51.872;4.460;2023-02-15T03:08:48;102937.97;;;0.43;95.17
74594;BME280;63097;51.872;4.460;2023-02-15T03:11:16;102935.66;;;0.38;95.01
74594;BME280;63097;51.872;4.460;2023-02-15T03:13:41;102936.94;;;0.34;95.17
74594;BME280;63097;51.872;4.460;2023-02-15T03:16:09;102935.19;;;0.33;95.21
74594;BME280;63097;51.872;4.460;2023-02-15T03:18:43;102940.94;;;0.30;94.79
74594;BME280;63097;51.872;4.460;2023-02-15T03:21:11;102929.13;;;0.30;95.51
74594;BME280;63097;51.872;4.460;2023-02-15T03:23:38;102931.47;;;0.34;95.45
74594;BME280;63097;51.872;4.460;2023-02-15T03:26:05;102924.53;;;0.30;95.72
74594;BME280;63097;51.872;4.460;2023-02-15T03:28:40;102930.00;;;0.30;95.39
74594;BME280;63097;51.872;4.460;2023-02-15T03:31:07;102926.66;;;0.27;95.36
74594;BME280;63097;51.872;4.460;2023-02-15T03:33:36;102919.72;;;0.23;95.38
74594;BME280;63097;51.872;4.460;2023-02-15T03:36:17;102921.88;;;0.19;95.38
74594;BME280;63097;51.872;4.460;2023-02-15T03:38:54;102912.91;;;0.17;95.19
74594;BME280;63097;51.872;4.460;2023-02-15T03:41:24;102912.69;;;0.20;95.48
74594;BME280;63097;51.872;4.460;2023-02-15T03:43:54;102918.53;;;0.16;95.11
74594;BME280;63097;51.872;4.460;2023-02-15T03:48:53;102909.28;;;0.07;95.27
74594;BME280;63097;51.872;4.460;2023-02-15T03:51:22;102906.94;;;0.03;94.95
74594;BME280;63097;51.872;4.460;2023-02-15T03:53:49;102906.78;;;0.04;95.28
74594;BME280;63097;51.872;4.460;2023-02-15T03:56:15;102904.41;;;0.11;95.59
74594;BME280;63097;51.872;4.460;2023-02-15T03:58:41;102898.06;;;0.10;95.60
74594;BME280;63097;51.872;4.460;2023-02-15T04:04:11;102888.22;;;0.08;95.19
74594;BME280;63097;51.872;4.460;2023-02-15T04:06:40;102883.31;;;0.02;95.41
74594;BME280;63097;51.872;4.460;2023-02-15T04:09:05;102884.31;;;0.00;95.65
74594;BME280;63097;51.872;4.460;2023-02-15T04:11:31;102890.50;;;0.03;95.26
74594;BME280;63097;51.872;4.460;2023-02-15T04:13:56;102890.66;;;0.01;95.29
74594;BME280;63097;51.872;4.460;2023-02-15T04:16:25;102889.03;;;-0.02;95.49
74594;BME280;63097;51.872;4.460;2023-02-15T04:18:50;102885.19;;;0.01;95.67
74594;BME280;63097;51.872;4.460;2023-02-15T04:21:16;102884.44;;;-0.01;95.76
74594;BME280;63097;51.872;4.460;2023-02-15T04:23:41;102877.50;;;-0.05;95.40
74594;BME280;63097;51.872;4.460;2023-02-15T04:26:07;102878.91;;;-0.11;95.38
74594;BME280;63097;51.872;4.460;2023-02-15T04:28:32;102882.91;;;-0.15;95.58
74594;BME280;63097;51.872;4.460;2023-02-15T04:30:57;102884.97;;;-0.07;95.45
74594;BME280;63097;51.872;4.460;2023-02-15T04:33:23;102890.88;;;-0.12;95.36
74594;BME280;63097;51.872;4.460;2023-02-15T04:35:48;102892.72;;;-0.12;95.19
74594;BME280;63097;51.872;4.460;2023-02-15T04:38:13;102881.06;;;-0.14;95.52
74594;BME280;63097;51.872;4.460;2023-02-15T04:40:39;102881.31;;;-0.17;95.18
74594;BME280;63097;51.872;4.460;2023-02-15T04:43:04;102874.66;;;-0.24;95.21
74594;BME280;63097;51.872;4.460;2023-02-15T04:45:29;102873.78;;;-0.25;95.23
74594;BME280;63097;51.872;4.460;2023-02-15T04:47:55;102881.84;;;-0.23;95.70
74594;BME280;63097;51.872;4.460;2023-02-15T04:50:20;102888.81;;;-0.19;95.61
74594;BME280;63097;51.872;4.460;2023-02-15T04:52:46;102887.03;;;-0.20;95.45
74594;BME280;63097;51.872;4.460;2023-02-15T04:55:11;102879.25;;;-0.25;95.41
74594;BME280;63097;51.872;4.460;2023-02-15T04:57:37;102882.13;;;-0.26;95.63
74594;BME280;63097;51.872;4.460;2023-02-15T05:00:02;102880.13;;;-0.24;95.24
74594;BME280;63097;51.872;4.460;2023-02-15T05:02:28;102874.78;;;-0.26;95.52
74594;BME280;63097;51.872;4.460;2023-02-15T05:04:53;102867.19;;;-0.22;95.81
74594;BME280;63097;51.872;4.460;2023-02-15T05:07:18;102875.66;;;-0.25;95.63
74594;BME280;63097;51.872;4.460;2023-02-15T05:09:44;102867.72;;;-0.28;95.50
74594;BME280;63097;51.872;4.460;2023-02-15T05:12:09;102857.59;;;-0.17;95.53
74594;BME280;63097;51.872;4.460;2023-02-15T05:14:34;102856.72;;;-0.17;95.67
74594;BME280;63097;51.872;4.460;2023-02-15T05:17:00;102857.53;;;-0.26;95.50
74594;BME280;63097;51.872;4.460;2023-02-15T05:19:25;102853.78;;;-0.25;95.55
74594;BME280;63097;51.872;4.460;2023-02-15T05:21:50;102845.84;;;-0.28;95.62
74594;BME280;63097;51.872;4.460;2023-02-15T05:24:16;102842.97;;;-0.27;95.53
74594;BME280;63097;51.872;4.460;2023-02-15T05:26:41;102843.84;;;-0.26;96.21
74594;BME280;63097;51.872;4.460;2023-02-15T05:32:12;102849.50;;;-0.18;96.37
74594;BME280;63097;51.872;4.460;2023-02-15T05:34:38;102840.84;;;-0.23;96.39
74594;BME280;63097;51.872;4.460;2023-02-15T05:37:03;102840.75;;;-0.12;96.42
74594;BME280;63097;51.872;4.460;2023-02-15T05:39:29;102844.47;;;0.08;96.68
74594;BME280;63097;51.872;4.460;2023-02-15T05:41:54;102836.47;;;-0.05;96.60
74594;BME280;63097;51.872;4.460;2023-02-15T05:44:19;102840.16;;;-0.16;96.30
74594;BME280;63097;51.872;4.460;2023-02-15T05:46:44;102841.97;;;-0.26;96.07
74594;BME280;63097;51.872;4.460;2023-02-15T05:49:10;102835.91;;;-0.29;96.19
74594;BME280;63097;51.872;4.460;2023-02-15T05:51:35;102831.16;;;-0.27;96.43
74594;BME280;63097;51.872;4.460;2023-02-15T05:54:00;102839.31;;;-0.37;96.25
74594;BME280;63097;51.872;4.460;2023-02-15T05:56:26;102830.38;;;-0.39;96.26
74594;BME280;63097;51.872;4.460;2023-02-15T05:58:52;102829.50;;;-0.39;96.57
74594;BME280;63097;51.872;4.460;2023-02-15T06:01:18;102828.78;;;-0.41;96.30
74594;BME280;63097;51.872;4.460;2023-02-15T06:03:45;102838.69;;;-0.40;96.31
74594;BME280;63097;51.872;4.460;2023-02-15T06:06:10;102827.72;;;-0.50;95.88
74594;BME280;63097;51.872;4.460;2023-02-15T06:08:37;102827.72;;;-0.50;95.84
74594;BME280;63097;51.872;4.460;2023-02-15T06:11:03;102829.84;;;-0.53;95.85
74594;BME280;63097;51.872;4.460;2023-02-15T06:13:28;102825.22;;;-0.53;95.86
74594;BME280;63097;51.872;4.460;2023-02-15T06:15:54;102827.72;;;-0.50;96.06
74594;BME280;63097;51.872;4.460;2023-02-15T06:18:19;102826.72;;;-0.49;96.23
74594;BME280;63097;51.872;4.460;2023-02-15T06:23:48;102831.13;;;-0.57;96.12
74594;BME280;63097;51.872;4.460;2023-02-15T06:26:13;102840.19;;;-0.57;95.97
74594;BME280;63097;51.872;4.460;2023-02-15T06:28:38;102835.84;;;-0.59;95.78
74594;BME280;63097;51.872;4.460;2023-02-15T06:31:04;102830.50;;;-0.61;96.02
74594;BME280;63097;51.872;4.460;2023-02-15T06:33:29;102833.09;;;-0.59;96.17
74594;BME280;63097;51.872;4.460;2023-02-15T06:35:54;102830.25;;;-0.58;96.02
74594;BME280;63097;51.872;4.460;2023-02-15T06:38:19;102829.06;;;-0.44;96.60
74594;BME280;63097;51.872;4.460;2023-02-15T06:40:45;102819.63;;;-0.51;96.20
74594;BME280;63097;51.872;4.460;2023-02-15T06:43:10;102820.19;;;-0.37;96.81
74594;BME280;63097;51.872;4.460;2023-02-15T06:45:35;102828.50;;;-0.38;96.91
74594;BME280;63097;51.872;4.460;2023-02-15T06:48:01;102825.16;;;-0.42;96.93
74594;BME280;63097;51.872;4.460;2023-02-15T06:50:26;102831.78;;;-0.44;97.03
74594;BME280;63097;51.872;4.460;2023-02-15T06:52:58;102828.47;;;-0.48;96.85
74594;BME280;63097;51.872;4.460;2023-02-15T06:55:24;102827.22;;;-0.55;96.64
74594;BME280;63097;51.872;4.460;2023-02-15T06:57:49;102820.91;;;-0.55;96.89
74594;BME280;63097;51.872;4.460;2023-02-15T07:00:15;102829.25;;;-0.57;96.72
74594;BME280;63097;51.872;4.460;2023-02-15T07:02:40;102826.53;;;-0.57;96.82
74594;BME280;63097;51.872;4.460;2023-02-15T07:05:06;102830.97;;;-0.56;97.01
74594;BME280;63097;51.872;4.460;2023-02-15T07:07:31;102839.63;;;-0.51;96.89
74594;BME280;63097;51.872;4.460;2023-02-15T07:09:56;102832.78;;;-0.45;97.00
74594;BME280;63097;51.872;4.460;2023-02-15T07:12:22;102818.22;;;-0.46;97.20
74594;BME280;63097;51.872;4.460;2023-02-15T07:14:47;102821.31;;;-0.39;96.94
74594;BME280;63097;51.872;4.460;2023-02-15T07:17:12;102815.31;;;-0.33;97.20
74594;BME280;63097;51.872;4.460;2023-02-15T07:19:38;102822.22;;;-0.29;96.96
74594;BME280;63097;51.872;4.460;2023-02-15T07:22:03;102814.09;;;-0.20;96.88
74594;BME280;63097;51.872;4.460;2023-02-15T07:24:28;102819.06;;;-0.04;96.86
74594;BME280;63097;51.872;4.460;2023-02-15T07:26:54;102816.34;;;-0.04;96.93
74594;BME280;63097;51.872;4.460;2023-02-15T07:29:19;102819.81;;;-0.02;96.76
74594;BME280;63097;51.872;4.460;2023-02-15T07:31:44;102816.50;;;0.04;96.60
74594;BME280;63097;51.872;4.460;2023-02-15T07:34:10;102812.94;;;0.13;96.40
74594;BME280;63097;51.872;4.460;2023-02-15T07:36:35;102818.47;;;0.23;96.67
74594;BME280;63097;51.872;4.460;2023-02-15T07:39:01;102803.22;;;0.30;96.58
74594;BME280;63097;51.872;4.460;2023-02-15T07:41:26;102804.53;;;0.35;96.54
74594;BME280;63097;51.872;4.460;2023-02-15T07:43:51;102807.16;;;0.46;96.09
74594;BME280;63097;51.872;4.460;2023-02-15T07:46:17;102806.91;;;0.59;96.36
74594;BME280;63097;51.872;4.460;2023-02-15T07:48:43;102804.19;;;0.68;96.04
74594;BME280;63097;51.872;4.460;2023-02-15T07:51:10;102803.19;;;0.79;95.86
74594;BME280;63097;51.872;4.460;2023-02-15T07:53:37;102796.44;;;0.92;95.84
74594;BME280;63097;51.872;4.460;2023-02-15T07:56:10;102797.91;;;1.06;94.94
74594;BME280;63097;51.872;4.460;2023-02-15T07:58:35;102787.66;;;1.27;95.33
74594;BME280;63097;51.872;4.460;2023-02-15T08:01:01;102799.34;;;1.39;95.42
74594;BME280;63097;51.872;4.460;2023-02-15T08:03:27;102794.41;;;1.52;95.04
74594;BME280;63097;51.872;4.460;2023-02-15T08:05:57;102791.38;;;1.64;94.63
74594;BME280;63097;51.872;4.460;2023-02-15T08:08:22;102788.88;;;1.80;94.55
74594;BME280;63097;51.872;4.460;2023-02-15T08:10:48;102799.88;;;2.08;94.92
74594;BME280;63097;51.872;4.460;2023-02-15T08:13:13;102799.34;;;2.58;95.10
74594;BME280;63097;51.872;4.460;2023-02-15T08:15:38;102793.75;;;2.77;94.77
74594;BME280;63097;51.872;4.460;2023-02-15T08:18:04;102782.75;;;2.95;94.14
74594;BME280;63097;51.872;4.460;2023-02-15T08:20:29;102781.81;;;3.22;93.74
74594;BME280;63097;51.872;4.460;2023-02-15T08:22:54;102779.69;;;3.16;92.88
74594;BME280;63097;51.872;4.460;2023-02-15T08:25:20;102774.38;;;3.14;92.58
74594;BME280;63097;51.872;4.460;2023-02-15T08:27:45;102769.34;;;3.27;92.48
74594;BME280;63097;51.872;4.460;2023-02-15T08:30:11;102779.28;;;3.28;92.28
74594;BME280;63097;51.872;4.460;2023-02-15T08:32:36;102770.81;;;3.39;91.22
74594;BME280;63097;51.872;4.460;2023-02-15T08:35:02;102779.47;;;3.44;91.41
74594;BME280;63097;51.872;4.460;2023-02-15T08:37:27;102775.03;;;3.34;91.99
74594;BME280;63097;51.872;4.460;2023-02-15T08:39:52;102770.38;;;3.52;91.83
74594;BME280;63097;51.872;4.460;2023-02-15T08:42:18;102785.94;;;3.61;91.84
74594;BME280;63097;51.872;4.460;2023-02-15T08:44:43;102779.91;;;3.83;90.65
74594;BME280;63097;51.872;4.460;2023-02-15T08:47:08;102785.25;;;4.10;89.69
74594;BME280;63097;51.872;4.460;2023-02-15T08:49:34;102779.19;;;4.06;88.74
74594;BME280;63097;51.872;4.460;2023-02-15T08:51:59;102782.34;;;3.86;89.16
74594;BME280;63097;51.872;4.460;2023-02-15T08:54:24;102774.63;;;3.89;88.77
74594;BME280;63097;51.872;4.460;2023-02-15T08:56:50;102775.53;;;3.98;88.09
74594;BME280;63097;51.872;4.460;2023-02-15T08:59:24;102782.25;;;3.95;88.43
74594;BME280;63097;51.872;4.460;2023-02-15T09:01:50;102801.44;;;4.13;88.41
74594;BME280;63097;51.872;4.460;2023-02-15T09:04:16;102785.72;;;4.05;88.12
74594;BME280;63097;51.872;4.460;2023-02-15T09:06:43;102790.53;;;4.03;88.04
74594;BME280;63097;51.872;4.460;2023-02-15T09:09:10;102785.09;;;4.12;87.96
74594;BME280;63097;51.872;4.460;2023-02-15T09:11:46;102786.75;;;4.38;87.71
74594;BME280;63097;51.872;4.460;2023-02-15T09:14:14;102792.25;;;4.30;86.86
74594;BME280;63097;51.872;4.460;2023-02-15T09:16:42;102781.94;;;4.32;86.53
74594;BME280;63097;51.872;4.460;2023-02-15T09:19:07;102776.25;;;4.42;86.55
74594;BME280;63097;51.872;4.460;2023-02-15T09:21:35;102771.06;;;4.80;84.67
74594;BME280;63097;51.872;4.460;2023-02-15T09:24:04;102773.53;;;4.99;84.59
74594;BME280;63097;51.872;4.460;2023-02-15T09:26:31;102776.28;;;5.16;84.13
74594;BME280;63097;51.872;4.460;2023-02-15T09:28:59;102772.69;;;5.47;84.20
74594;BME280;63097;51.872;4.460;2023-02-15T09:31:27;102763.72;;;5.61;82.20
74594;BME280;63097;51.872;4.460;2023-02-15T09:33:53;102779.56;;;5.99;79.65
74594;BME280;63097;51.872;4.460;2023-02-15T09:36:39;102779.88;;;6.04;80.21
74594;BME280;63097;51.872;4.460;2023-02-15T09:47:26;102776.78;;;6.54;79.29
74594;BME280;63097;51.872;4.460;2023-02-15T09:50:33;102765.91;;;6.83;77.49
74594;BME280;63097;51.872;4.460;2023-02-15T09:53:41;102777.38;;;7.26;77.38
74594;BME280;63097;51.872;4.460;2023-02-15T10:02:03;102770.63;;;7.05;76.83
74594;BME280;63097;51.872;4.460;2023-02-15T10:07:13;102773.72;;;7.33;77.07
74594;BME280;63097;51.872;4.460;2023-02-15T10:12:46;102779.50;;;7.46;75.63
74594;BME280;63097;51.872;4.460;2023-02-15T10:18:05;102774.75;;;7.32;75.97
74594;BME280;63097;51.872;4.460;2023-02-15T10:26:17;102772.84;;;8.07;74.49
74594;BME280;63097;51.872;4.460;2023-02-15T10:28:49;102783.41;;;8.26;73.10
74594;BME280;63097;51.872;4.460;2023-02-15T10:31:28;102774.28;;;8.03;74.28
74594;BME280;63097;51.872;4.460;2023-02-15T10:34:16;102761.78;;;8.22;73.03
74594;BME280;63097;51.872;4.460;2023-02-15T10:37:09;102768.53;;;8.04;74.29
74594;BME280;63097;51.872;4.460;2023-02-15T10:45:55;102754.34;;;8.87;71.60
74594;BME280;63097;51.872;4.460;2023-02-15T10:51:30;102750.94;;;9.27;70.68
74594;BME280;63097;51.872;4.460;2023-02-15T10:56:36;102742.28;;;9.37;69.02
74594;BME280;63097;51.872;4.460;2023-02-15T11:01:44;102735.91;;;9.64;68.52
74594;BME280;63097;51.872;4.460;2023-02-15T11:04:37;102746.91;;;9.99;67.33
74594;BME280;63097;51.872;4.460;2023-02-15T11:07:12;102745.13;;;10.54;65.35
74594;BME280;63097;51.872;4.460;2023-02-15T11:12:48;102741.69;;;11.12;63.02
74594;BME280;63097;51.872;4.460;2023-02-15T11:18:09;102738.59;;;11.93;60.63
74594;BME280;63097;51.872;4.460;2023-02-15T11:21:08;102737.50;;;11.68;61.71
74594;BME280;63097;51.872;4.460;2023-02-15T11:23:33;102727.81;;;11.38;60.88
74594;BME280;63097;51.872;4.460;2023-02-15T11:26:03;102741.59;;;11.66;59.55
74594;BME280;63097;51.872;4.460;2023-02-15T11:31:17;102729.19;;;10.82;62.16
74594;BME280;63097;51.872;4.460;2023-02-15T11:33:47;102723.06;;;11.12;61.60
74594;BME280;63097;51.872;4.460;2023-02-15T11:36:41;102713.25;;;11.30;61.55
74594;BME280;63097;51.872;4.460;2023-02-15T11:39:15;102709.84;;;11.86;59.80
74594;BME280;63097;51.872;4.460;2023-02-15T11:41:44;102705.22;;;12.38;58.67
74594;BME280;63097;51.872;4.460;2023-02-15T11:46:44;102693.38;;;12.42;57.74
74594;BME280;63097;51.872;4.460;2023-02-15T11:51:46;102696.81;;;13.82;54.10
74594;BME280;63097;51.872;4.460;2023-02-15T11:54:11;102696.50;;;13.90;52.97
74594;BME280;63097;51.872;4.460;2023-02-15T11:56:37;102687.50;;;13.63;53.10
74594;BME280;63097;51.872;4.460;2023-02-15T11:59:18;102694.25;;;13.56;53.18
74594;BME280;63097;51.872;4.460;2023-02-15T12:01:48;102688.47;;;13.51;54.09
74594;BME280;63097;51.872;4.460;2023-02-15T12:04:22;102692.03;;;14.07;52.52
74594;BME280;63097;51.872;4.460;2023-02-15T12:07:00;102693.75;;;14.80;50.33
74594;BME280;63097;51.872;4.460;2023-02-15T12:09:36;102698.25;;;13.42;53.92
74594;BME280;63097;51.872;4.460;2023-02-15T12:14:53;102685.94;;;14.53;51.23
74594;BME280;63097;51.872;4.460;2023-02-15T12:17:22;102673.28;;;15.09;49.14
74594;BME280;63097;51.872;4.460;2023-02-15T12:19:48;102679.03;;;15.44;49.40
74594;BME280;63097;51.872;4.460;2023-02-15T12:23:41;102679.06;;;14.85;51.64
74594;BME280;63097;51.872;4.460;2023-02-15T12:25:42;102681.91;;;15.38;49.33
74594;BME280;63097;51.872;4.460;2023-02-15T12:28:31;102685.03;;;13.24;54.19
74594;BME280;63097;51.872;4.460;2023-02-15T12:30:59;102679.81;;;13.03;55.51
74594;BME280;63097;51.872;4.460;2023-02-15T12:33:26;102681.72;;;12.65;56.46
74594;BME280;63097;51.872;4.460;2023-02-15T12:36:22;102670.34;;;12.02;58.78
74594;BME280;63097;51.872;4.460;2023-02-15T12:39:04;102670.31;;;12.66;56.90
74594;BME280;63097;51.872;4.460;2023-02-15T12:41:29;102669.03;;;12.62;57.82
74594;BME280;63097;51.872;4.460;2023-02-15T12:44:18;102684.16;;;12.48;58.10
74594;BME280;63097;51.872;4.460;2023-02-15T12:47:00;102672.63;;;12.25;59.16
74594;BME280;63097;51.872;4.460;2023-02-15T12:49:27;102665.66;;;12.54;57.98
74594;BME280;63097;51.872;4.460;2023-02-15T12:51:58;102666.22;;;12.69;58.39
74594;BME280;63097;51.872;4.460;2023-02-15T12:56:49;102667.38;;;12.92;57.46
74594;BME280;63097;51.872;4.460;2023-02-15T12:59:15;102658.19;;;13.48;56.86
74594;BME280;63097;51.872;4.460;2023-02-15T13:01:41;102664.28;;;13.63;57.46
74594;BME280;63097;51.872;4.460;2023-02-15T13:06:48;102656.53;;;14.26;54.30
74594;BME280;63097;51.872;4.460;2023-02-15T13:09:26;102649.97;;;13.95;54.67
74594;BME280;63097;51.872;4.460;2023-02-15T13:14:36;102659.09;;;12.73;57.71
74594;BME280;63097;51.872;4.460;2023-02-15T13:17:03;102656.50;;;12.34;59.06
74594;BME280;63097;51.872;4.460;2023-02-15T13:19:34;102653.13;;;12.19;59.99
74594;BME280;63097;51.872;4.460;2023-02-15T13:22:05;102649.69;;;12.67;59.61
74594;BME280;63097;51.872;4.460;2023-02-15T13:24:41;102643.38;;;12.78;58.41
74594;BME280;63097;51.872;4.460;2023-02-15T13:27:14;102645.81;;;12.68;58.98
74594;BME280;63097;51.872;4.460;2023-02-15T13:29:43;102632.66;;;12.75;58.95
74594;BME280;63097;51.872;4.460;2023-02-15T13:32:28;102634.28;;;13.27;57.31
74594;BME280;63097;51.872;4.460;2023-02-15T13:34:57;102633.75;;;13.12;58.34
74594;BME280;63097;51.872;4.460;2023-02-15T13:50:58;102621.44;;;13.20;57.62
74594;BME280;63097;51.872;4.460;2023-02-15T13:56:15;102614.63;;;14.19;55.90
74594;BME280;63097;51.872;4.460;2023-02-15T13:59:06;102609.78;;;14.26;54.45
74594;BME280;63097;51.872;4.460;2023-02-15T14:04:31;102587.34;;;15.03;52.66
74594;BME280;63097;51.872;4.460;2023-02-15T14:18:03;102606.84;;;14.87;53.23
74594;BME280;63097;51.872;4.460;2023-02-15T14:23:31;102605.56;;;12.82;59.49
74594;BME280;63097;51.872;4.460;2023-02-15T14:26:09;102603.84;;;12.44;60.84
74594;BME280;63097;51.872;4.460;2023-02-15T14:31:34;102612.03;;;12.76;60.06
74594;BME280;63097;51.872;4.460;2023-02-15T14:34:00;102618.75;;;12.69;60.13
74594;BME280;63097;51.872;4.460;2023-02-15T14:36:27;102613.91;;;12.51;61.09
74594;BME280;63097;51.872;4.460;2023-02-15T14:39:16;102608.78;;;11.91;63.11
74594;BME280;63097;51.872;4.460;2023-02-15T14:41:53;102614.78;;;11.94;63.13
74594;BME280;63097;51.872;4.460;2023-02-15T14:44:35;102606.16;;;12.09;63.39
74594;BME280;63097;51.872;4.460;2023-02-15T14:47:10;102614.16;;;11.92;63.93
74594;BME280;63097;51.872;4.460;2023-02-15T14:49:38;102607.56;;;12.38;62.75
74594;BME280;63097;51.872;4.460;2023-02-15T14:52:09;102609.72;;;12.29;63.05
74594;BME280;63097;51.872;4.460;2023-02-15T14:59:25;102604.03;;;11.98;64.40
74594;BME280;63097;51.872;4.460;2023-02-15T15:01:58;102600.25;;;11.73;65.73
74594;BME280;63097;51.872;4.460;2023-02-15T15:07:57;102598.97;;;11.43;66.41
74594;BME280;63097;51.872;4.460;2023-02-15T15:12:41;102599.19;;;10.95;68.72
74594;BME280;63097;51.872;4.460;2023-02-15T15:15:09;102602.63;;;10.97;68.54
74594;BME280;63097;51.872;4.460;2023-02-15T15:42:49;102589.38;;;10.93;69.35
74594;BME280;63097;51.872;4.460;2023-02-15T15:48:27;102577.97;;;10.68;70.56
74594;BME280;63097;51.872;4.460;2023-02-15T15:50:57;102581.19;;;10.72;70.14
74594;BME280;63097;51.872;4.460;2023-02-15T15:53:25;102575.59;;;10.52;70.34
74594;BME280;63097;51.872;4.460;2023-02-15T15:56:00;102576.91;;;10.56;70.45
74594;BME280;63097;51.872;4.460;2023-02-15T15:58:27;102582.00;;;10.46;70.72
74594;BME280;63097;51.872;4.460;2023-02-15T16:01:02;102581.38;;;10.57;70.47